ADDS METAR Data INFO
IDs: Format: Raw Decoded Include TAF

Data at: 2214 UTC 24 Jun 2018

KSYI 242155Z AUTO 34004KT 10SM FEW039 FEW047 FEW095 24/23 A2999 RMK A01 P0001
KSYI 242135Z AUTO 33003KT 8SM FEW041 FEW047 SCT055 24/22 A2999 RMK A01
KSYI 242115Z AUTO 09004KT 10SM CLR 24/22 A2999 RMK A01
KSYI 242055Z AUTO 11005KT 10SM CLR 24/22 A3000 RMK A01 P0003
KSYI 242035Z AUTO 13007KT 10SM SCT032 SCT045 24/22 A3001 RMK A01
KSYI 242015Z AUTO 13008KT 5SM BR BKN032 OVC045 23/22 A3003 RMK A01
KSYI 241955Z AUTO 15006G14KT 5SM BR FEW003 BKN035 OVC070 23/22 A3004 RMK A01 P0036
KSYI 241935Z AUTO 23019KT 8SM FEW020 BKN038 BKN047 29/23 A3002 RMK A01
KSYI 241915Z AUTO 29005KT 10SM FEW035 FEW043 FEW050 31/23 A2997 RMK A01
KSYI 241855Z AUTO 29007KT 10SM FEW035 FEW046 32/23 A2999 RMK A01
KSYI 241835Z AUTO VRB06KT 240V300 10SM CLR 32/23 A2999 RMK A01
KSYI 241815Z AUTO 25012KT 10SM CLR 32/23 A3000 RMK A01
KSYI 241755Z AUTO 25009KT 10SM FEW033 31/22 A3000 RMK A01
KSYI 241735Z AUTO 24006KT 10SM FEW034 FEW041 31/23 A3000 RMK A01
KSYI 241715Z AUTO 28007KT 10SM FEW036 FEW044 32/23 A2999 RMK A01
KSYI 241655Z AUTO 29005G16KT 10SM FEW023 FEW038 30/22 A2999 RMK A01
KSYI 241635Z AUTO 29005KT 10SM BKN025 BKN032 BKN041 29/24 A3000 RMK A01
KSYI 241615Z AUTO 31005KT 10SM SCT025 BKN032 BKN040 29/24 A3000 RMK A01
KSYI 241555Z AUTO 33006KT 10SM FEW021 SCT032 SCT045 29/24 A3001 RMK A01
KSYI 241535Z AUTO 24006KT 10SM SCT021 SCT028 SCT033 28/24 A3001 RMK A01
KSYI 241515Z AUTO 28006G13KT 10SM BKN022 BKN028 BKN032 28/24 A3001 RMK A01
KSYI 241455Z AUTO 25010KT 10SM BKN021 BKN026 OVC030 29/24 A3000 RMK A01
KSYI 241435Z AUTO 25005KT 10SM BKN020 OVC025 28/24 A3000 RMK A01
KSYI 241415Z AUTO 24007KT 10SM OVC019 28/24 A3000 RMK A01
KSYI 241355Z AUTO VRB06KT 10SM BKN021 BKN041 28/23 A3000 RMK A01
KSYI 241335Z AUTO 24005KT 10SM BKN023 BKN028 BKN038 26/23 A3000 RMK A01
KSYI 241315Z AUTO 21006G12KT 10SM FEW030 BKN038 BKN050 26/23 A2999 RMK A01
KSYI 241255Z AUTO 19005KT 10SM BKN036 BKN041 BKN055 25/23 A2999 RMK A01
KSYI 241235Z AUTO 18005KT 10SM BKN035 OVC041 25/23 A2999 RMK A01
KSYI 241215Z AUTO 18005KT 10SM BKN034 BKN041 OVC060 24/23 A2998 RMK A01
KSYI 241155Z AUTO 17004KT 10SM BKN035 BKN043 OVC065 24/23 A2997 RMK A01
KSYI 241135Z AUTO 16004KT 10SM FEW018 BKN034 OVC065 24/23 A2997 RMK A01
KSYI 241115Z AUTO 00000KT 10SM BKN033 BKN055 OVC065 23/22 A2997 RMK A01
KSYI 241055Z AUTO 19004KT 10SM SCT035 SCT043 BKN055 23/22 A2996 RMK A01
KSYI 241035Z AUTO 16004KT 10SM FEW018 BKN037 OVC060 23/22 A2995 RMK A01
KSYI 241015Z AUTO 17004KT 10SM BKN018 BKN036 OVC055 23/22 A2994 RMK A01
KSYI 240955Z AUTO 15004KT 10SM SCT018 BKN036 OVC049 23/22 A2994 RMK A01
KSYI 240935Z AUTO 17003KT 10SM BKN020 OVC048 23/22 A2994 RMK A01
KSYI 240915Z AUTO 17004KT 10SM OVC020 23/22 A2993 RMK A01
KSYI 240855Z AUTO 16005KT 10SM BKN020 OVC028 23/22 A2993 RMK A01
KSYI 240835Z AUTO 17004KT 10SM BKN021 BKN036 BKN050 23/23 A2993 RMK A01
KSYI 240815Z AUTO 00000KT 9SM FEW023 SCT040 BKN060 23/23 A2992 RMK A01
KSYI 240755Z AUTO 18003KT 9SM FEW017 SCT023 BKN028 23/22 A2992 RMK A01
KSYI 240735Z AUTO 19004KT 9SM BKN017 BKN022 23/23 A2992 RMK A01
KSYI 240715Z AUTO 19004KT 10SM BKN020 BKN029 23/23 A2992 RMK A01
KSYI 240655Z AUTO 18005KT 10SM FEW015 BKN022 BKN026 24/23 A2991 RMK A01
KSYI 240635Z AUTO 17004KT 10SM FEW013 SCT022 BKN026 24/23 A2992 RMK A01
KSYI 240615Z AUTO 18004KT 10SM BKN026 BKN031 BKN047 24/23 A2992 RMK A01
KSYI 240555Z AUTO 16003KT 10SM FEW013 BKN028 BKN036 24/23 A2992 RMK A01
KSYI 240535Z AUTO 17005KT 10SM CLR 24/23 A2992 RMK A01
KSYI 240515Z AUTO 14004KT 10SM SCT017 SCT023 24/23 A2991 RMK A01
KSYI 240455Z AUTO 16004KT 10SM SCT017 SCT023 24/23 A2991 RMK A01
KSYI 240435Z AUTO 15004KT 10SM SCT016 24/22 A2990 RMK A01
KSYI 240415Z AUTO 19004KT 10SM SCT016 BKN021 24/22 A2992 RMK A01
KSYI 240355Z AUTO 17005KT 10SM FEW013 SCT023 BKN030 24/22 A2991 RMK A01
KSYI 240335Z AUTO 18006KT 10SM FEW013 BKN030 24/22 A2990 RMK A01
KSYI 240315Z AUTO 16006KT 10SM FEW013 SCT029 BKN034 24/22 A2990 RMK A01
KSYI 240255Z AUTO 18006KT 10SM FEW017 BKN033 OVC050 24/22 A2991 RMK A01
KSYI 240235Z AUTO 17006KT 10SM FEW018 SCT032 BKN041 24/22 A2990 RMK A01
KSYI 240215Z AUTO 17006KT 10SM BKN035 BKN050 OVC060 24/22 A2989 RMK A01
KSYI 240155Z AUTO 17005KT 10SM FEW016 SCT021 OVC036 24/22 A2989 RMK A01
KSYI 240135Z AUTO 20007KT 10SM OVC018 24/22 A2988 RMK A01
KSYI 240115Z AUTO 18006KT 10SM BKN019 BKN027 25/22 A2988 RMK A01
KSYI 240055Z AUTO 19008KT 10SM BKN025 BKN030 25/22 A2987 RMK A01
KSYI 240035Z AUTO 19008KT 10SM SCT019 BKN024 OVC030 25/22 A2987 RMK A01
KSYI 240015Z AUTO 18008KT 10SM BKN019 BKN029 OVC036 25/22 A2987 RMK A01
KSYI 232355Z AUTO 20007G13KT 10SM SCT020 BKN026 OVC035 25/22 A2987 RMK A01
KSYI 232335Z AUTO 19010KT 10SM BKN021 OVC027 26/22 A2986 RMK A01
KSYI 232315Z AUTO 19009G18KT 10SM BKN022 BKN028 OVC033 27/22 A2985 RMK A01
KSYI 232255Z AUTO 17010G15KT 10SM BKN020 27/22 A2985 RMK A01
KSYI 232235Z AUTO 21012KT 10SM BKN021 BKN027 27/22 A2986 RMK A01
KSYI 232215Z AUTO 22010G16KT 10SM BKN021 BKN026 26/22 A2987 RMK A01
KSYI 232155Z AUTO 21012G17KT 10SM FEW022 27/22 A2987 RMK A01
KSYI 232135Z AUTO 20012G20KT 10SM CLR 27/22 A2988 RMK A01
KSYI 232115Z AUTO 19012KT 10SM FEW033 26/21 A2988 RMK A01
KSYI 232055Z AUTO 20013KT 10SM SCT033 27/21 A2988 RMK A01
KSYI 232035Z AUTO 20011KT 10SM FEW019 26/21 A2989 RMK A01
KSYI 232015Z AUTO 21011G17KT 10SM FEW019 25/21 A2989 RMK A01
KSYI 231955Z AUTO 22012KT 10SM FEW015 25/21 A2990 RMK A01
KSYI 231935Z AUTO 21011G17KT 10SM CLR 24/20 A2989 RMK A01
KSYI 231915Z AUTO 23009G18KT 10SM CLR 23/20 A2990 RMK A01
KSYI 231855Z AUTO 21015KT 10SM CLR 24/20 A2991 RMK A01
KSYI 231835Z AUTO 22007KT 10SM CLR 24/20 A2990 RMK A01
KSYI 231815Z AUTO 21013KT 10SM CLR 25/21 A2989 RMK A01
KSYI 231755Z AUTO 22011G22KT 10SM FEW002 FEW020 FEW029 24/21 A2988 RMK A01 P0006
KSYI 231735Z AUTO VRB05G16KT 2 1/2SM HZ FEW003 BKN021 BKN030 25/22 A2987 RMK A01
KSYI 231715Z AUTO 20014KT 10SM BKN024 OVC030 27/22 A2991 RMK A01
KSYI 231655Z AUTO 23012KT 10SM SCT022 SCT026 BKN031 28/22 A2991 RMK A01
KSYI 231635Z AUTO 22012KT 10SM SCT020 BKN026 BKN075 28/22 A2991 RMK A01
KSYI 231615Z AUTO 20011KT 10SM BKN019 OVC026 27/22 A2991 RMK A01
KSYI 231555Z AUTO 21010G15KT 10SM BKN018 BKN023 26/22 A2990 RMK A01
KSYI 231535Z AUTO 22009G15KT 10SM OVC016 25/22 A2990 RMK A01
KSYI 231515Z AUTO 21010KT 10SM OVC015 25/22 A2990 RMK A01
KSYI 231455Z AUTO 19010KT 10SM OVC015 25/21 A2990 RMK A01
KSYI 231435Z AUTO 21009G14KT 10SM OVC015 24/21 A2990 RMK A01
KSYI 231415Z AUTO 19011KT 10SM BKN016 BKN042 OVC050 25/21 A2990 RMK A01
KSYI 231355Z AUTO 18010KT 10SM SCT047 BKN055 25/21 A2989 RMK A01
KSYI 231335Z AUTO 19009KT 10SM FEW013 SCT048 24/21 A2989 RMK A01
KSYI 231315Z AUTO 19009KT 10SM FEW010 BKN046 24/21 A2988 RMK A01
KSYI 231255Z AUTO 18007KT 10SM FEW010 SCT044 23/21 A2988 RMK A01
KSYI 231235Z AUTO 17005KT 10SM FEW045 23/21 A2988 RMK A01
KSYI 231215Z AUTO 18006KT 10SM SCT055 22/21 A2989 RMK A01
KSYI 231155Z AUTO 18005G10KT 10SM BKN009 OVC055 21/21 A2989 RMK A01
KSYI 231135Z AUTO 17006KT 10SM BKN008 OVC060 21/21 A2988 RMK A01
KSYI 231115Z AUTO 17006KT 10SM OVC007 21/20 A2987 RMK A01
KSYI 231055Z AUTO 16003KT 10SM BKN007 BKN050 21/20 A2988 RMK A01
KSYI 231035Z AUTO 00000KT 10SM OVC007 21/20 A2987 RMK A01
KSYI 231015Z AUTO 17003KT 10SM OVC006 21/20 A2986 RMK A01